Accueil
METAR-TAF:

METAR-TAF

Aéroports :

Aéroport de Huesca-Pyrénées

Huesca, Espagne

latitude: 42-04-32N, longitude: 0-18-58W, altitude: 539 m

Observation

Le bulletin a été fait il y a 36 minutes, à 22:00 UTC
Vent 3 kt de nord/nord-ouest
Température 20°C
Humidité 68%
Pression 1022 hPa
Visibilité 10 km ou plus

METAR: LEHC 222200Z AUTO 33003KT 9999 NCD 20/14 Q1022

Heure: 00:36 (22:36 UTC)

Prévision

Le bulletin a été fait il y a 8 heures et 36 minutes, à 14:00 UTC
Prévision valable du 22 à 15 UTC au 23 à 15 UTC
Vent 4 kt de direction variable
Visibilité 10 km ou plus
Quelques nuages à une hauteur de 3000 ft
Evoluant progressivement
du 22 à 21 UTC au 22 à 24 UTC
Vent 10 kt de nord-est
Evoluant progressivement
du 23 à 06 UTC au 23 à 09 UTC
Vent 5 kt de sud

TAF: LEHC 221400Z 2215/2315 VRB04KT 9999 FEW030 TX29/2314Z TN17/2305Z BECMG 2221/2224 05010KT BECMG 2306/2309 18005KT

Observations et prévisions météorologiques de plus de 4000 aéroports (messages METAR et TAF).

Les stations disponibles sont représentées par des disques jaunes et rouges sur la carte.

Passer la souris dessus pour voir le nom de la station.

Cliquer dessus pour voir les observations et prévisions météorologiques.

Pour changer de carte: cliquez sur les boutons verts avec une croix noire pour zoomer, sur le bouton vert avec un tiret pour effectuer un zoom arrière, ou sur les flèches vertes pour les cartes adjacentes.


METAR-TAF: